Spg Valley, Ohio
Current Conditions -  °F | °C
As of 11:53 AM on Sunday 23 Nov 2014 (Local Time) from KMGY Reporting Station
Scattered Clouds Scattered Clouds  
Wind Chill: 61°   Ceiling: Unl
Heat Index: 61°   Visibility: 10mi
Dew Point: 44°   Wind: 13mph
Humidity: 54%   Direction: 150°SSE
Pressure: 29.85"   Gusts: NA
Location:  39.6097°N, 84.0251°W
Report Text: KMGY 231653Z AUTO 15011KT 10SM SCT042 16/07 A2985 RMK AO2 PRESFR SLP106 T01610067
Loading
Personal Weather Stations






























Interactive Weather Map New forecast layout! Learn more

10-Day Weather Forecast

Advertisements
Track Severe Weather on mobile